sensor_id;sensor_type;location;lat;lon;timestamp;temperature;humidity
6110;DHT22;3085;49.444;11.054;2023-05-17T00:00:06;9.40;99.90
6110;DHT22;3085;49.444;11.054;2023-05-17T00:02:34;9.20;99.90
6110;DHT22;3085;49.444;11.054;2023-05-17T00:05:01;9.10;99.90
6110;DHT22;3085;49.444;11.054;2023-05-17T00:07:28;9.30;99.90
6110;DHT22;3085;49.444;11.054;2023-05-17T00:09:56;9.10;99.90
6110;DHT22;3085;49.444;11.054;2023-05-17T00:12:23;9.10;99.90
6110;DHT22;3085;49.444;11.054;2023-05-17T00:14:49;9.00;99.90
6110;DHT22;3085;49.444;11.054;2023-05-17T00:17:17;8.90;99.90
6110;DHT22;3085;49.444;11.054;2023-05-17T00:19:44;8.90;99.90
6110;DHT22;3085;49.444;11.054;2023-05-17T00:22:11;9.00;99.90
6110;DHT22;3085;49.444;11.054;2023-05-17T00:24:38;8.90;99.90
6110;DHT22;3085;49.444;11.054;2023-05-17T00:27:06;8.80;99.90
6110;DHT22;3085;49.444;11.054;2023-05-17T00:29:32;8.90;99.90
6110;DHT22;3085;49.444;11.054;2023-05-17T00:31:59;8.80;99.90
6110;DHT22;3085;49.444;11.054;2023-05-17T00:34:26;8.90;99.90
6110;DHT22;3085;49.444;11.054;2023-05-17T00:36:53;8.70;99.90
6110;DHT22;3085;49.444;11.054;2023-05-17T00:39:19;8.70;99.90
6110;DHT22;3085;49.444;11.054;2023-05-17T00:41:46;8.60;99.90
6110;DHT22;3085;49.444;11.054;2023-05-17T00:44:14;8.60;99.90
6110;DHT22;3085;49.444;11.054;2023-05-17T00:46:41;8.50;99.90
6110;DHT22;3085;49.444;11.054;2023-05-17T00:49:08;8.40;99.90
6110;DHT22;3085;49.444;11.054;2023-05-17T00:51:35;8.30;99.90
6110;DHT22;3085;49.444;11.054;2023-05-17T00:54:02;7.70;99.90
6110;DHT22;3085;49.444;11.054;2023-05-17T00:56:29;8.30;99.90
6110;DHT22;3085;49.444;11.054;2023-05-17T00:58:57;8.30;99.90
6110;DHT22;3085;49.444;11.054;2023-05-17T01:01:26;8.30;99.90
6110;DHT22;3085;49.444;11.054;2023-05-17T01:03:52;8.30;99.90
6110;DHT22;3085;49.444;11.054;2023-05-17T01:06:19;8.30;99.90
6110;DHT22;3085;49.444;11.054;2023-05-17T01:08:46;8.30;99.90
6110;DHT22;3085;49.444;11.054;2023-05-17T01:11:21;8.30;99.90
6110;DHT22;3085;49.444;11.054;2023-05-17T01:13:58;8.20;99.90
6110;DHT22;3085;49.444;11.054;2023-05-17T01:16:32;8.30;99.90
6110;DHT22;3085;49.444;11.054;2023-05-17T01:19:08;8.30;99.90
6110;DHT22;3085;49.444;11.054;2023-05-17T01:21:47;8.20;99.90
6110;DHT22;3085;49.444;11.054;2023-05-17T01:24:24;8.20;99.90
6110;DHT22;3085;49.444;11.054;2023-05-17T01:26:54;8.20;99.90
6110;DHT22;3085;49.444;11.054;2023-05-17T01:29:23;8.20;99.90
6110;DHT22;3085;49.444;11.054;2023-05-17T01:31:51;8.10;99.90
6110;DHT22;3085;49.444;11.054;2023-05-17T01:34:25;8.10;99.90
6110;DHT22;3085;49.444;11.054;2023-05-17T01:36:52;8.10;99.90
6110;DHT22;3085;49.444;11.054;2023-05-17T01:39:19;8.10;99.90
6110;DHT22;3085;49.444;11.054;2023-05-17T01:41:52;8.00;99.90
6110;DHT22;3085;49.444;11.054;2023-05-17T01:44:25;7.90;99.90
6110;DHT22;3085;49.444;11.054;2023-05-17T01:47:01;8.00;99.90
6110;DHT22;3085;49.444;11.054;2023-05-17T01:49:33;7.50;99.90
6110;DHT22;3085;49.444;11.054;2023-05-17T01:52:06;7.80;99.90
6110;DHT22;3085;49.444;11.054;2023-05-17T01:54:36;7.90;99.90
6110;DHT22;3085;49.444;11.054;2023-05-17T01:57:05;7.80;99.90
6110;DHT22;3085;49.444;11.054;2023-05-17T01:59:34;7.80;99.90
6110;DHT22;3085;49.444;11.054;2023-05-17T02:02:04;7.70;99.90
6110;DHT22;3085;49.444;11.054;2023-05-17T02:04:33;7.70;99.90
6110;DHT22;3085;49.444;11.054;2023-05-17T02:07:00;7.60;99.90
6110;DHT22;3085;49.444;11.054;2023-05-17T02:09:27;7.50;99.90
6110;DHT22;3085;49.444;11.054;2023-05-17T02:11:54;7.50;99.90
6110;DHT22;3085;49.444;11.054;2023-05-17T02:14:21;7.50;99.90
6110;DHT22;3085;49.444;11.054;2023-05-17T02:16:49;7.50;99.90
6110;DHT22;3085;49.444;11.054;2023-05-17T02:19:16;7.40;99.90
6110;DHT22;3085;49.444;11.054;2023-05-17T02:21:43;7.40;99.90
6110;DHT22;3085;49.444;11.054;2023-05-17T02:24:10;7.40;99.90
6110;DHT22;3085;49.444;11.054;2023-05-17T02:26:36;7.30;99.90
6110;DHT22;3085;49.444;11.054;2023-05-17T02:29:07;7.40;99.90
6110;DHT22;3085;49.444;11.054;2023-05-17T02:31:34;7.40;99.90
6110;DHT22;3085;49.444;11.054;2023-05-17T02:34:02;7.30;99.90
6110;DHT22;3085;49.444;11.054;2023-05-17T02:36:28;7.30;99.90
6110;DHT22;3085;49.444;11.054;2023-05-17T02:38:55;7.30;99.90
6110;DHT22;3085;49.444;11.054;2023-05-17T02:41:22;7.30;99.90
6110;DHT22;3085;49.444;11.054;2023-05-17T02:43:49;7.30;99.90
6110;DHT22;3085;49.444;11.054;2023-05-17T02:46:15;7.30;99.90
6110;DHT22;3085;49.444;11.054;2023-05-17T02:48:42;7.20;99.90
6110;DHT22;3085;49.444;11.054;2023-05-17T02:51:10;7.30;99.90
6110;DHT22;3085;49.444;11.054;2023-05-17T02:53:37;7.20;99.90
6110;DHT22;3085;49.444;11.054;2023-05-17T02:56:04;7.30;99.90
6110;DHT22;3085;49.444;11.054;2023-05-17T02:58:31;7.30;99.90
6110;DHT22;3085;49.444;11.054;2023-05-17T03:00:58;7.20;99.90
6110;DHT22;3085;49.444;11.054;2023-05-17T03:03:25;7.20;99.90
6110;DHT22;3085;49.444;11.054;2023-05-17T03:05:51;7.20;99.90
6110;DHT22;3085;49.444;11.054;2023-05-17T03:08:19;7.20;99.90
6110;DHT22;3085;49.444;11.054;2023-05-17T03:10:46;7.10;99.90
6110;DHT22;3085;49.444;11.054;2023-05-17T03:13:13;7.30;99.90
6110;DHT22;3085;49.444;11.054;2023-05-17T03:15:40;7.10;99.90
6110;DHT22;3085;49.444;11.054;2023-05-17T03:18:07;7.10;99.90
6110;DHT22;3085;49.444;11.054;2023-05-17T03:20:33;7.00;99.90
6110;DHT22;3085;49.444;11.054;2023-05-17T03:23:00;7.00;99.90
6110;DHT22;3085;49.444;11.054;2023-05-17T03:25:28;7.00;99.90
6110;DHT22;3085;49.444;11.054;2023-05-17T03:27:55;6.90;99.90
6110;DHT22;3085;49.444;11.054;2023-05-17T03:30:22;6.90;99.90
6110;DHT22;3085;49.444;11.054;2023-05-17T03:32:49;6.90;99.90
6110;DHT22;3085;49.444;11.054;2023-05-17T03:35:16;6.80;99.90
6110;DHT22;3085;49.444;11.054;2023-05-17T03:37:43;6.80;99.90
6110;DHT22;3085;49.444;11.054;2023-05-17T03:40:10;6.90;99.90
6110;DHT22;3085;49.444;11.054;2023-05-17T03:42:38;6.80;99.90
6110;DHT22;3085;49.444;11.054;2023-05-17T03:45:06;6.80;99.90
6110;DHT22;3085;49.444;11.054;2023-05-17T03:47:33;6.80;99.90
6110;DHT22;3085;49.444;11.054;2023-05-17T03:50:00;6.80;99.90
6110;DHT22;3085;49.444;11.054;2023-05-17T03:52:27;6.80;99.90
6110;DHT22;3085;49.444;11.054;2023-05-17T03:54:53;6.90;99.90
6110;DHT22;3085;49.444;11.054;2023-05-17T03:57:20;6.80;99.90
6110;DHT22;3085;49.444;11.054;2023-05-17T03:59:48;6.80;99.90
6110;DHT22;3085;49.444;11.054;2023-05-17T04:02:16;6.80;99.90
6110;DHT22;3085;49.444;11.054;2023-05-17T04:04:48;6.70;99.90
6110;DHT22;3085;49.444;11.054;2023-05-17T04:07:15;6.70;99.90
6110;DHT22;3085;49.444;11.054;2023-05-17T04:09:42;6.80;99.90
6110;DHT22;3085;49.444;11.054;2023-05-17T04:12:09;6.80;99.90
6110;DHT22;3085;49.444;11.054;2023-05-17T04:14:36;6.80;99.90
6110;DHT22;3085;49.444;11.054;2023-05-17T04:17:04;6.80;99.90
6110;DHT22;3085;49.444;11.054;2023-05-17T04:19:32;6.90;99.90
6110;DHT22;3085;49.444;11.054;2023-05-17T04:21:59;6.90;99.90
6110;DHT22;3085;49.444;11.054;2023-05-17T04:24:25;7.60;99.90
6110;DHT22;3085;49.444;11.054;2023-05-17T04:26:52;6.80;99.90
6110;DHT22;3085;49.444;11.054;2023-05-17T04:29:19;7.20;99.90
6110;DHT22;3085;49.444;11.054;2023-05-17T04:31:46;6.90;99.90
6110;DHT22;3085;49.444;11.054;2023-05-17T04:34:15;7.00;99.90
6110;DHT22;3085;49.444;11.054;2023-05-17T04:36:42;7.00;99.90
6110;DHT22;3085;49.444;11.054;2023-05-17T04:39:08;6.90;99.90
6110;DHT22;3085;49.444;11.054;2023-05-17T04:41:35;6.90;99.90
6110;DHT22;3085;49.444;11.054;2023-05-17T04:44:02;7.00;99.90
6110;DHT22;3085;49.444;11.054;2023-05-17T04:46:29;7.20;99.90
6110;DHT22;3085;49.444;11.054;2023-05-17T04:48:56;7.30;99.90
6110;DHT22;3085;49.444;11.054;2023-05-17T04:51:24;7.30;99.90
6110;DHT22;3085;49.444;11.054;2023-05-17T04:53:52;7.30;99.90
6110;DHT22;3085;49.444;11.054;2023-05-17T04:56:19;7.40;99.90
6110;DHT22;3085;49.444;11.054;2023-05-17T04:58:47;7.40;99.90
6110;DHT22;3085;49.444;11.054;2023-05-17T05:01:13;7.50;99.90
6110;DHT22;3085;49.444;11.054;2023-05-17T05:03:40;7.30;99.90
6110;DHT22;3085;49.444;11.054;2023-05-17T05:06:07;7.30;99.90
6110;DHT22;3085;49.444;11.054;2023-05-17T05:08:35;7.40;99.90
6110;DHT22;3085;49.444;11.054;2023-05-17T05:11:03;7.40;99.90
6110;DHT22;3085;49.444;11.054;2023-05-17T05:13:30;7.50;99.90
6110;DHT22;3085;49.444;11.054;2023-05-17T05:15:57;7.50;99.90
6110;DHT22;3085;49.444;11.054;2023-05-17T05:18:24;7.50;99.90
6110;DHT22;3085;49.444;11.054;2023-05-17T05:20:51;7.60;99.90
6110;DHT22;3085;49.444;11.054;2023-05-17T05:23:18;7.60;99.90
6110;DHT22;3085;49.444;11.054;2023-05-17T05:25:46;7.60;99.90
6110;DHT22;3085;49.444;11.054;2023-05-17T05:28:13;7.60;99.90
6110;DHT22;3085;49.444;11.054;2023-05-17T05:30:40;7.80;99.90
6110;DHT22;3085;49.444;11.054;2023-05-17T05:33:06;7.80;99.90
6110;DHT22;3085;49.444;11.054;2023-05-17T05:35:33;7.80;99.90
6110;DHT22;3085;49.444;11.054;2023-05-17T05:38:00;7.80;99.90
6110;DHT22;3085;49.444;11.054;2023-05-17T05:40:27;8.90;99.90
6110;DHT22;3085;49.444;11.054;2023-05-17T05:42:55;7.80;99.90
6110;DHT22;3085;49.444;11.054;2023-05-17T05:45:22;7.80;99.90
6110;DHT22;3085;49.444;11.054;2023-05-17T05:47:48;7.80;99.90
6110;DHT22;3085;49.444;11.054;2023-05-17T05:50:16;7.70;99.90
6110;DHT22;3085;49.444;11.054;2023-05-17T05:52:45;7.90;99.90
6110;DHT22;3085;49.444;11.054;2023-05-17T05:55:14;7.90;99.90
6110;DHT22;3085;49.444;11.054;2023-05-17T05:57:41;8.00;99.90
6110;DHT22;3085;49.444;11.054;2023-05-17T06:00:10;8.10;99.90
6110;DHT22;3085;49.444;11.054;2023-05-17T06:02:37;8.00;99.90
6110;DHT22;3085;49.444;11.054;2023-05-17T06:05:05;8.10;99.90
6110;DHT22;3085;49.444;11.054;2023-05-17T06:07:32;8.20;99.90
6110;DHT22;3085;49.444;11.054;2023-05-17T06:09:59;8.30;99.90
6110;DHT22;3085;49.444;11.054;2023-05-17T06:12:26;8.30;99.90
6110;DHT22;3085;49.444;11.054;2023-05-17T06:14:53;8.20;99.90
6110;DHT22;3085;49.444;11.054;2023-05-17T06:17:21;8.30;99.90
6110;DHT22;3085;49.444;11.054;2023-05-17T06:19:47;8.50;99.90
6110;DHT22;3085;49.444;11.054;2023-05-17T06:22:14;8.30;99.90
6110;DHT22;3085;49.444;11.054;2023-05-17T06:24:41;8.40;99.90
6110;DHT22;3085;49.444;11.054;2023-05-17T06:27:08;9.40;99.90
6110;DHT22;3085;49.444;11.054;2023-05-17T06:29:35;8.50;99.90
6110;DHT22;3085;49.444;11.054;2023-05-17T06:32:02;8.80;99.90
6110;DHT22;3085;49.444;11.054;2023-05-17T06:34:31;8.60;99.90
6110;DHT22;3085;49.444;11.054;2023-05-17T06:36:58;8.80;99.90
6110;DHT22;3085;49.444;11.054;2023-05-17T06:39:24;8.70;99.90
6110;DHT22;3085;49.444;11.054;2023-05-17T06:41:51;8.80;99.90
6110;DHT22;3085;49.444;11.054;2023-05-17T06:44:18;8.70;99.90
6110;DHT22;3085;49.444;11.054;2023-05-17T06:46:45;8.70;99.90
6110;DHT22;3085;49.444;11.054;2023-05-17T06:49:12;8.70;99.90
6110;DHT22;3085;49.444;11.054;2023-05-17T06:51:40;8.80;99.90
6110;DHT22;3085;49.444;11.054;2023-05-17T06:54:07;8.70;99.90
6110;DHT22;3085;49.444;11.054;2023-05-17T06:56:34;8.80;99.90
6110;DHT22;3085;49.444;11.054;2023-05-17T06:59:01;8.90;99.90
6110;DHT22;3085;49.444;11.054;2023-05-17T07:01:28;8.90;99.90
6110;DHT22;3085;49.444;11.054;2023-05-17T07:03:56;9.00;99.90
6110;DHT22;3085;49.444;11.054;2023-05-17T07:06:23;9.10;99.90
6110;DHT22;3085;49.444;11.054;2023-05-17T07:08:51;9.00;99.90
6110;DHT22;3085;49.444;11.054;2023-05-17T07:11:18;9.00;99.90
6110;DHT22;3085;49.444;11.054;2023-05-17T07:13:44;9.20;99.90
6110;DHT22;3085;49.444;11.054;2023-05-17T07:16:11;9.30;99.90
6110;DHT22;3085;49.444;11.054;2023-05-17T07:18:38;9.20;99.90
6110;DHT22;3085;49.444;11.054;2023-05-17T07:21:05;9.30;99.90
6110;DHT22;3085;49.444;11.054;2023-05-17T07:23:31;9.40;99.90
6110;DHT22;3085;49.444;11.054;2023-05-17T07:26:00;9.60;99.90
6110;DHT22;3085;49.444;11.054;2023-05-17T07:28:26;9.70;99.90
6110;DHT22;3085;49.444;11.054;2023-05-17T07:30:54;9.90;99.90
6110;DHT22;3085;49.444;11.054;2023-05-17T07:33:21;9.80;99.90
6110;DHT22;3085;49.444;11.054;2023-05-17T07:35:48;9.60;99.90
6110;DHT22;3085;49.444;11.054;2023-05-17T07:38:15;9.70;99.90
6110;DHT22;3085;49.444;11.054;2023-05-17T07:40:42;10.50;99.90
6110;DHT22;3085;49.444;11.054;2023-05-17T07:43:10;9.70;99.90
6110;DHT22;3085;49.444;11.054;2023-05-17T07:45:37;9.60;99.90
6110;DHT22;3085;49.444;11.054;2023-05-17T07:48:04;9.70;99.90
6110;DHT22;3085;49.444;11.054;2023-05-17T07:50:31;9.80;99.90
6110;DHT22;3085;49.444;11.054;2023-05-17T07:52:58;9.80;99.90
6110;DHT22;3085;49.444;11.054;2023-05-17T07:55:24;9.90;99.90
6110;DHT22;3085;49.444;11.054;2023-05-17T07:57:51;10.00;99.90
6110;DHT22;3085;49.444;11.054;2023-05-17T08:00:21;10.00;99.90
6110;DHT22;3085;49.444;11.054;2023-05-17T08:02:48;10.10;99.90
6110;DHT22;3085;49.444;11.054;2023-05-17T08:05:15;10.10;99.90
6110;DHT22;3085;49.444;11.054;2023-05-17T08:07:41;10.20;99.90
6110;DHT22;3085;49.444;11.054;2023-05-17T08:10:09;10.30;99.90
6110;DHT22;3085;49.444;11.054;2023-05-17T08:12:36;10.20;99.90
6110;DHT22;3085;49.444;11.054;2023-05-17T08:15:04;10.20;99.90
6110;DHT22;3085;49.444;11.054;2023-05-17T08:17:32;10.20;99.90
6110;DHT22;3085;49.444;11.054;2023-05-17T08:19:59;10.20;99.90
6110;DHT22;3085;49.444;11.054;2023-05-17T08:22:25;10.10;99.90
6110;DHT22;3085;49.444;11.054;2023-05-17T08:24:52;10.30;99.90
6110;DHT22;3085;49.444;11.054;2023-05-17T08:27:19;10.40;99.90
6110;DHT22;3085;49.444;11.054;2023-05-17T08:29:46;10.40;99.90
6110;DHT22;3085;49.444;11.054;2023-05-17T08:32:12;10.40;99.90
6110;DHT22;3085;49.444;11.054;2023-05-17T08:34:41;10.40;99.90
6110;DHT22;3085;49.444;11.054;2023-05-17T08:37:07;10.20;99.90
6110;DHT22;3085;49.444;11.054;2023-05-17T08:39:34;10.40;99.90
6110;DHT22;3085;49.444;11.054;2023-05-17T08:42:01;10.40;99.90
6110;DHT22;3085;49.444;11.054;2023-05-17T08:44:32;10.40;99.90
6110;DHT22;3085;49.444;11.054;2023-05-17T08:47:02;10.50;99.90
6110;DHT22;3085;49.444;11.054;2023-05-17T08:49:30;10.70;99.90
6110;DHT22;3085;49.444;11.054;2023-05-17T08:52:00;10.60;99.90
6110;DHT22;3085;49.444;11.054;2023-05-17T08:54:27;10.60;99.90
6110;DHT22;3085;49.444;11.054;2023-05-17T08:56:58;10.60;99.90
6110;DHT22;3085;49.444;11.054;2023-05-17T08:59:27;10.80;99.90
6110;DHT22;3085;49.444;11.054;2023-05-17T09:01:58;10.70;99.90
6110;DHT22;3085;49.444;11.054;2023-05-17T09:04:26;10.80;99.90
6110;DHT22;3085;49.444;11.054;2023-05-17T09:06:54;10.80;99.90
6110;DHT22;3085;49.444;11.054;2023-05-17T09:09:22;10.70;99.90
6110;DHT22;3085;49.444;11.054;2023-05-17T09:11:49;10.70;99.90
6110;DHT22;3085;49.444;11.054;2023-05-17T09:14:15;10.80;99.90
6110;DHT22;3085;49.444;11.054;2023-05-17T09:16:42;10.90;99.90
6110;DHT22;3085;49.444;11.054;2023-05-17T09:19:15;10.90;99.90
6110;DHT22;3085;49.444;11.054;2023-05-17T09:21:45;10.80;99.90
6110;DHT22;3085;49.444;11.054;2023-05-17T09:24:12;11.00;99.90
6110;DHT22;3085;49.444;11.054;2023-05-17T09:26:42;11.10;99.90
6110;DHT22;3085;49.444;11.054;2023-05-17T09:29:10;11.30;99.90
6110;DHT22;3085;49.444;11.054;2023-05-17T09:31:37;11.30;99.90
6110;DHT22;3085;49.444;11.054;2023-05-17T09:34:04;11.30;99.90
6110;DHT22;3085;49.444;11.054;2023-05-17T09:36:34;11.30;99.90
6110;DHT22;3085;49.444;11.054;2023-05-17T09:39:03;11.50;99.90
6110;DHT22;3085;49.444;11.054;2023-05-17T09:41:31;11.30;99.90
6110;DHT22;3085;49.444;11.054;2023-05-17T09:44:01;11.30;99.90
6110;DHT22;3085;49.444;11.054;2023-05-17T09:46:32;11.20;99.90
6110;DHT22;3085;49.444;11.054;2023-05-17T09:49:00;11.10;99.90
6110;DHT22;3085;49.444;11.054;2023-05-17T09:51:34;11.20;99.90
6110;DHT22;3085;49.444;11.054;2023-05-17T09:54:01;11.30;99.90
6110;DHT22;3085;49.444;11.054;2023-05-17T09:56:28;11.10;99.90
6110;DHT22;3085;49.444;11.054;2023-05-17T09:58:56;11.30;99.90
6110;DHT22;3085;49.444;11.054;2023-05-17T10:01:25;11.40;99.90
6110;DHT22;3085;49.444;11.054;2023-05-17T10:03:53;11.40;99.90
6110;DHT22;3085;49.444;11.054;2023-05-17T10:06:21;11.30;99.90
6110;DHT22;3085;49.444;11.054;2023-05-17T10:08:51;11.20;99.90
6110;DHT22;3085;49.444;11.054;2023-05-17T10:11:23;11.20;99.90
6110;DHT22;3085;49.444;11.054;2023-05-17T10:13:59;11.00;99.90
6110;DHT22;3085;49.444;11.054;2023-05-17T10:16:32;11.10;99.90
6110;DHT22;3085;49.444;11.054;2023-05-17T10:18:59;11.00;99.90
6110;DHT22;3085;49.444;11.054;2023-05-17T10:21:27;11.00;99.90
6110;DHT22;3085;49.444;11.054;2023-05-17T10:23:54;10.90;99.90
6110;DHT22;3085;49.444;11.054;2023-05-17T10:26:22;11.90;99.90
6110;DHT22;3085;49.444;11.054;2023-05-17T10:28:49;10.90;99.90
6110;DHT22;3085;49.444;11.054;2023-05-17T10:31:19;11.00;99.90
6110;DHT22;3085;49.444;11.054;2023-05-17T10:33:49;10.90;99.90
6110;DHT22;3085;49.444;11.054;2023-05-17T10:36:16;10.90;99.90
6110;DHT22;3085;49.444;11.054;2023-05-17T10:38:44;11.00;99.90
6110;DHT22;3085;49.444;11.054;2023-05-17T10:41:12;11.20;99.90
6110;DHT22;3085;49.444;11.054;2023-05-17T10:43:40;11.10;99.90
6110;DHT22;3085;49.444;11.054;2023-05-17T10:46:11;11.10;99.90
6110;DHT22;3085;49.444;11.054;2023-05-17T10:48:40;11.10;99.90
6110;DHT22;3085;49.444;11.054;2023-05-17T10:51:10;11.20;99.90
6110;DHT22;3085;49.444;11.054;2023-05-17T10:54:04;11.30;99.90
6110;DHT22;3085;49.444;11.054;2023-05-17T10:56:33;11.30;99.90
6110;DHT22;3085;49.444;11.054;2023-05-17T10:59:20;11.30;99.90
6110;DHT22;3085;49.444;11.054;2023-05-17T11:01:51;11.20;99.90
6110;DHT22;3085;49.444;11.054;2023-05-17T11:04:20;11.20;99.90
6110;DHT22;3085;49.444;11.054;2023-05-17T11:06:50;11.20;99.90
6110;DHT22;3085;49.444;11.054;2023-05-17T11:09:20;11.20;99.90
6110;DHT22;3085;49.444;11.054;2023-05-17T11:12:04;11.30;99.90
6110;DHT22;3085;49.444;11.054;2023-05-17T11:14:47;11.30;99.90
6110;DHT22;3085;49.444;11.054;2023-05-17T11:17:16;11.50;99.90
6110;DHT22;3085;49.444;11.054;2023-05-17T11:20:05;11.40;99.90
6110;DHT22;3085;49.444;11.054;2023-05-17T11:22:37;11.40;99.90
6110;DHT22;3085;49.444;11.054;2023-05-17T11:25:10;11.40;99.90
6110;DHT22;3085;49.444;11.054;2023-05-17T11:27:40;11.40;99.90
6110;DHT22;3085;49.444;11.054;2023-05-17T11:30:16;11.40;99.90
6110;DHT22;3085;49.444;11.054;2023-05-17T11:32:49;11.50;99.90
6110;DHT22;3085;49.444;11.054;2023-05-17T11:35:17;11.40;99.90
6110;DHT22;3085;49.444;11.054;2023-05-17T11:37:45;11.30;99.90
6110;DHT22;3085;49.444;11.054;2023-05-17T11:40:24;11.40;99.90
6110;DHT22;3085;49.444;11.054;2023-05-17T11:43:08;11.40;99.90
6110;DHT22;3085;49.444;11.054;2023-05-17T11:45:41;11.40;99.90
6110;DHT22;3085;49.444;11.054;2023-05-17T11:48:08;11.40;99.90
6110;DHT22;3085;49.444;11.054;2023-05-17T11:50:35;11.40;99.90
6110;DHT22;3085;49.444;11.054;2023-05-17T11:53:04;11.30;99.90
6110;DHT22;3085;49.444;11.054;2023-05-17T11:55:32;11.40;99.90
6110;DHT22;3085;49.444;11.054;2023-05-17T11:58:01;11.20;99.90
6110;DHT22;3085;49.444;11.054;2023-05-17T12:00:28;11.20;99.90
6110;DHT22;3085;49.444;11.054;2023-05-17T12:02:55;11.30;99.90
6110;DHT22;3085;49.444;11.054;2023-05-17T12:05:22;11.30;99.90
6110;DHT22;3085;49.444;11.054;2023-05-17T12:07:49;11.50;99.90
6110;DHT22;3085;49.444;11.054;2023-05-17T12:10:18;11.70;99.90
6110;DHT22;3085;49.444;11.054;2023-05-17T12:12:46;11.70;99.90
6110;DHT22;3085;49.444;11.054;2023-05-17T12:15:17;11.70;99.90
6110;DHT22;3085;49.444;11.054;2023-05-17T12:17:45;11.80;99.90
6110;DHT22;3085;49.444;11.054;2023-05-17T12:20:14;11.80;99.90
6110;DHT22;3085;49.444;11.054;2023-05-17T12:22:51;11.80;99.90
6110;DHT22;3085;49.444;11.054;2023-05-17T12:25:20;11.70;99.90
6110;DHT22;3085;49.444;11.054;2023-05-17T12:27:49;11.90;99.90
6110;DHT22;3085;49.444;11.054;2023-05-17T12:30:17;11.90;99.90
6110;DHT22;3085;49.444;11.054;2023-05-17T12:32:44;11.80;99.90
6110;DHT22;3085;49.444;11.054;2023-05-17T12:35:12;11.90;99.90
6110;DHT22;3085;49.444;11.054;2023-05-17T12:37:39;12.00;99.90
6110;DHT22;3085;49.444;11.054;2023-05-17T12:40:07;12.10;99.90
6110;DHT22;3085;49.444;11.054;2023-05-17T12:42:37;12.10;99.90
6110;DHT22;3085;49.444;11.054;2023-05-17T12:45:09;12.10;99.90
6110;DHT22;3085;49.444;11.054;2023-05-17T12:47:37;12.00;99.90
6110;DHT22;3085;49.444;11.054;2023-05-17T12:50:04;12.00;99.90
6110;DHT22;3085;49.444;11.054;2023-05-17T12:52:32;11.90;99.90
6110;DHT22;3085;49.444;11.054;2023-05-17T12:55:02;11.80;99.90
6110;DHT22;3085;49.444;11.054;2023-05-17T12:57:28;11.90;99.90
6110;DHT22;3085;49.444;11.054;2023-05-17T12:59:57;12.00;99.90
6110;DHT22;3085;49.444;11.054;2023-05-17T13:02:26;12.00;99.90
6110;DHT22;3085;49.444;11.054;2023-05-17T13:04:52;11.90;99.90
6110;DHT22;3085;49.444;11.054;2023-05-17T13:07:21;11.90;99.90
6110;DHT22;3085;49.444;11.054;2023-05-17T13:09:48;11.80;99.90
6110;DHT22;3085;49.444;11.054;2023-05-17T13:12:18;11.80;99.90
6110;DHT22;3085;49.444;11.054;2023-05-17T13:14:47;11.70;99.90
6110;DHT22;3085;49.444;11.054;2023-05-17T13:17:18;11.80;99.90
6110;DHT22;3085;49.444;11.054;2023-05-17T13:19:45;11.70;99.90
6110;DHT22;3085;49.444;11.054;2023-05-17T13:22:12;11.90;99.90
6110;DHT22;3085;49.444;11.054;2023-05-17T13:24:41;11.80;99.90
6110;DHT22;3085;49.444;11.054;2023-05-17T13:27:08;11.90;99.90
6110;DHT22;3085;49.444;11.054;2023-05-17T13:29:37;11.90;99.90
6110;DHT22;3085;49.444;11.054;2023-05-17T13:32:05;12.10;99.90
6110;DHT22;3085;49.444;11.054;2023-05-17T13:34:34;12.20;99.90
6110;DHT22;3085;49.444;11.054;2023-05-17T13:37:01;12.00;99.90
6110;DHT22;3085;49.444;11.054;2023-05-17T13:39:27;12.10;99.90
6110;DHT22;3085;49.444;11.054;2023-05-17T13:41:54;12.00;99.90
6110;DHT22;3085;49.444;11.054;2023-05-17T13:44:21;12.10;99.90
6110;DHT22;3085;49.444;11.054;2023-05-17T13:46:48;12.20;99.90
6110;DHT22;3085;49.444;11.054;2023-05-17T13:49:15;12.20;99.90
6110;DHT22;3085;49.444;11.054;2023-05-17T13:51:43;12.30;99.90
6110;DHT22;3085;49.444;11.054;2023-05-17T13:54:10;12.30;99.90
6110;DHT22;3085;49.444;11.054;2023-05-17T13:56:37;12.30;99.90
6110;DHT22;3085;49.444;11.054;2023-05-17T13:59:03;12.40;99.90
6110;DHT22;3085;49.444;11.054;2023-05-17T14:01:30;12.50;99.90
6110;DHT22;3085;49.444;11.054;2023-05-17T14:03:57;12.60;99.90
6110;DHT22;3085;49.444;11.054;2023-05-17T14:06:25;12.60;99.90
6110;DHT22;3085;49.444;11.054;2023-05-17T14:08:53;12.70;99.90
6110;DHT22;3085;49.444;11.054;2023-05-17T14:11:21;12.60;99.90
6110;DHT22;3085;49.444;11.054;2023-05-17T14:13:48;12.60;99.90
6110;DHT22;3085;49.444;11.054;2023-05-17T14:16:15;12.50;99.90
6110;DHT22;3085;49.444;11.054;2023-05-17T14:18:41;12.60;99.90
6110;DHT22;3085;49.444;11.054;2023-05-17T14:21:08;12.60;99.90
6110;DHT22;3085;49.444;11.054;2023-05-17T14:23:35;12.60;99.90
6110;DHT22;3085;49.444;11.054;2023-05-17T14:26:03;12.70;99.90
6110;DHT22;3085;49.444;11.054;2023-05-17T14:28:31;12.60;99.90
6110;DHT22;3085;49.444;11.054;2023-05-17T14:31:00;12.70;99.90
6110;DHT22;3085;49.444;11.054;2023-05-17T14:33:28;12.80;99.90
6110;DHT22;3085;49.444;11.054;2023-05-17T14:35:55;12.90;99.90
6110;DHT22;3085;49.444;11.054;2023-05-17T14:38:21;12.90;99.90
6110;DHT22;3085;49.444;11.054;2023-05-17T14:40:48;13.10;99.90
6110;DHT22;3085;49.444;11.054;2023-05-17T14:43:16;13.20;99.90
6110;DHT22;3085;49.444;11.054;2023-05-17T14:45:44;13.30;99.90
6110;DHT22;3085;49.444;11.054;2023-05-17T14:48:11;13.30;99.90
6110;DHT22;3085;49.444;11.054;2023-05-17T14:50:38;14.10;99.90
6110;DHT22;3085;49.444;11.054;2023-05-17T14:53:05;13.10;99.90
6110;DHT22;3085;49.444;11.054;2023-05-17T14:55:32;13.20;99.90
6110;DHT22;3085;49.444;11.054;2023-05-17T14:58:06;14.20;99.90
6110;DHT22;3085;49.444;11.054;2023-05-17T15:00:34;13.30;99.90
6110;DHT22;3085;49.444;11.054;2023-05-17T15:03:01;13.40;99.90
6110;DHT22;3085;49.444;11.054;2023-05-17T15:05:28;13.50;99.90
6110;DHT22;3085;49.444;11.054;2023-05-17T15:07:55;13.60;99.90
6110;DHT22;3085;49.444;11.054;2023-05-17T15:10:22;13.70;99.90
6110;DHT22;3085;49.444;11.054;2023-05-17T15:12:48;14.00;99.90
6110;DHT22;3085;49.444;11.054;2023-05-17T15:15:15;14.10;99.90
6110;DHT22;3085;49.444;11.054;2023-05-17T15:17:46;14.00;99.90
6110;DHT22;3085;49.444;11.054;2023-05-17T15:20:13;14.00;99.90
6110;DHT22;3085;49.444;11.054;2023-05-17T15:22:40;13.70;99.90
6110;DHT22;3085;49.444;11.054;2023-05-17T15:25:07;13.80;99.90
6110;DHT22;3085;49.444;11.054;2023-05-17T15:27:34;13.90;99.90
6110;DHT22;3085;49.444;11.054;2023-05-17T15:30:00;14.00;99.90
6110;DHT22;3085;49.444;11.054;2023-05-17T15:32:27;14.30;99.90
6110;DHT22;3085;49.444;11.054;2023-05-17T15:34:55;14.40;99.90
6110;DHT22;3085;49.444;11.054;2023-05-17T15:37:23;14.30;99.90
6110;DHT22;3085;49.444;11.054;2023-05-17T15:39:50;14.10;99.90
6110;DHT22;3085;49.444;11.054;2023-05-17T15:42:17;14.00;99.90
6110;DHT22;3085;49.444;11.054;2023-05-17T15:44:43;13.90;99.90
6110;DHT22;3085;49.444;11.054;2023-05-17T15:47:10;14.00;99.90
6110;DHT22;3085;49.444;11.054;2023-05-17T15:49:37;14.00;99.90
6110;DHT22;3085;49.444;11.054;2023-05-17T15:52:06;14.00;99.90
6110;DHT22;3085;49.444;11.054;2023-05-17T15:54:33;13.90;99.90
6110;DHT22;3085;49.444;11.054;2023-05-17T15:57:00;13.80;99.90
6110;DHT22;3085;49.444;11.054;2023-05-17T15:59:27;13.80;99.90